Terminal Aerodrome Forecast
Issued by NWS

Home | Current Version | Previous Version | Text Only | Print | Product List | Glossary On
Versions: 1 2 3 4 5 6 7 8 9 10 11 12 13 14 15 16 17 18
000
FTUS46 KLOX 251726
TAFPMD
TAF
KPMD 251726Z 2518/2618 24008KT P6SM FEW110
     FM252100 23018G26KT P6SM SCT150
     FM260200 24012KT P6SM SCT150
     FM260600 21008KT P6SM SKC=

USA.gov is the U.S. government's official web portal to all federal, state and local government web resources and services.